Time;durP1;ratioP1;P1;durP2;ratioP2;P2;SDS_P1;SDS_P2;PMS_P1;PMS_P2;Temp;Humidity;BMP_temperature;BMP_pressure;BME280_temperature;BME280_humidity;BME280_pressure;Samples;Min_cycle;Max_cycle;Signal;HPM_P1;HPM_P2
2021/11/29 00:01:27;;;;;;;18.10;10.07;;;;;;;;;;5052681;28;20504;-65
2021/11/29 00:03:54;;;;;;;12.13;9.20;;;;;;;;;;5052681;28;20493;-65
2021/11/29 00:06:20;;;;;;;12.97;9.57;;;;;;;;;;5052590;28;20417;-65
2021/11/29 00:08:46;;;;;;;13.03;10.23;;;;;;;;;;5052588;28;20410;-65
2021/11/29 00:11:13;;;;;;;13.50;9.57;;;;;;;;;;5053030;28;20774;-65
2021/11/29 00:13:39;;;;;;;11.77;9.53;;;;;;;;;;5052459;28;20436;-65
2021/11/29 00:16:05;;;;;;;14.33;9.47;;;;;;;;;;5052518;28;20466;-64
2021/11/29 00:18:32;;;;;;;13.60;9.63;;;;;;;;;;5052376;28;20432;-65
2021/11/29 00:20:58;;;;;;;12.37;9.20;;;;;;;;;;5054141;28;20821;-65
2021/11/29 00:23:24;;;;;;;14.33;10.23;;;;;;;;;;5056428;28;20456;-65
2021/11/29 00:25:51;;;;;;;14.10;10.23;;;;;;;;;;5056928;28;20406;-65
2021/11/29 00:28:17;;;;;;;14.57;10.70;;;;;;;;;;5056616;28;20401;-64
2021/11/29 00:30:43;;;;;;;16.60;12.33;;;;;;;;;;5056015;28;20424;-65
2021/11/29 00:33:10;;;;;;;15.50;11.60;;;;;;;;;;5055970;28;20751;-65
2021/11/29 00:35:36;;;;;;;15.30;11.30;;;;;;;;;;5056081;28;20462;-65
2021/11/29 00:38:03;;;;;;;16.20;11.90;;;;;;;;;;5055040;28;20425;-65
2021/11/29 00:40:29;;;;;;;17.40;12.03;;;;;;;;;;5055677;28;20424;-65
2021/11/29 00:42:55;;;;;;;16.60;12.40;;;;;;;;;;5056269;28;20445;-65
2021/11/29 00:45:22;;;;;;;15.33;11.07;;;;;;;;;;5056047;28;20429;-65
2021/11/29 00:47:48;;;;;;;13.17;10.43;;;;;;;;;;5054987;28;20900;-65
2021/11/29 00:50:14;;;;;;;13.60;10.80;;;;;;;;;;5055401;28;20425;-65
2021/11/29 00:52:41;;;;;;;16.20;10.93;;;;;;;;;;5056307;28;20393;-65
2021/11/29 00:55:08;;;;;;;14.80;11.43;;;;;;;;;;5055608;28;20479;-65
2021/11/29 00:57:34;;;;;;;17.20;12.57;;;;;;;;;;5056009;28;20480;-65
2021/11/29 01:00:00;;;;;;;17.23;12.00;;;;;;;;;;5055585;28;20498;-65
2021/11/29 01:02:26;;;;;;;21.13;12.30;;;;;;;;;;5055738;28;20404;-65
2021/11/29 01:04:52;;;;;;;14.53;11.43;;;;;;;;;;5055781;28;20524;-65
2021/11/29 01:07:18;;;;;;;16.03;12.00;;;;;;;;;;5055914;28;20517;-65
2021/11/29 01:09:44;;;;;;;19.17;12.10;;;;;;;;;;5055118;28;20441;-65
2021/11/29 01:12:11;;;;;;;17.70;11.83;;;;;;;;;;5055868;28;20406;-65
2021/11/29 01:14:37;;;;;;;16.03;11.03;;;;;;;;;;5055625;28;20421;-65
2021/11/29 01:17:03;;;;;;;18.27;9.13;;;;;;;;;;5055618;28;20402;-65
2021/11/29 01:19:29;;;;;;;15.20;10.90;;;;;;;;;;5053961;28;20453;-65
2021/11/29 01:21:55;;;;;;;16.07;10.90;;;;;;;;;;5055618;28;20422;-65
2021/11/29 01:24:21;;;;;;;18.47;10.53;;;;;;;;;;5055212;28;20979;-65
2021/11/29 01:26:47;;;;;;;16.43;11.10;;;;;;;;;;5055505;28;20394;-65
2021/11/29 01:29:13;;;;;;;15.30;10.90;;;;;;;;;;5055403;28;20406;-65
2021/11/29 01:31:39;;;;;;;14.67;9.83;;;;;;;;;;5054270;28;20413;-65
2021/11/29 01:34:05;;;;;;;15.47;9.97;;;;;;;;;;5055363;28;20436;-65
2021/11/29 01:36:31;;;;;;;18.00;11.33;;;;;;;;;;5055379;28;20413;-65
2021/11/29 01:38:58;;;;;;;13.53;10.23;;;;;;;;;;5055148;28;20783;-65
2021/11/29 01:41:24;;;;;;;18.17;11.30;;;;;;;;;;5055150;28;20905;-65
2021/11/29 01:43:50;;;;;;;15.90;10.30;;;;;;;;;;5054876;28;20541;-65
2021/11/29 01:46:17;;;;;;;15.70;10.60;;;;;;;;;;5055146;28;20798;-65
2021/11/29 01:48:43;;;;;;;17.87;12.17;;;;;;;;;;5055187;28;20414;-65
2021/11/29 01:51:11;;;;;;;16.47;11.30;;;;;;;;;;5054534;28;20425;-65
2021/11/29 01:53:37;;;;;;;17.33;11.80;;;;;;;;;;5054712;28;20406;-65
2021/11/29 01:56:04;;;;;;;16.50;10.80;;;;;;;;;;5054757;28;20409;-65
2021/11/29 01:58:31;;;;;;;14.73;11.30;;;;;;;;;;5054557;28;20410;-65
2021/11/29 02:00:58;;;;;;;15.00;11.50;;;;;;;;;;5054112;28;20429;-66
2021/11/29 02:03:24;;;;;;;15.60;10.83;;;;;;;;;;5054288;28;20552;-65
2021/11/29 02:05:51;;;;;;;14.90;11.17;;;;;;;;;;5054434;28;20398;-65
2021/11/29 02:08:18;;;;;;;19.87;12.10;;;;;;;;;;5054493;28;20923;-65
2021/11/29 02:10:45;;;;;;;19.83;11.90;;;;;;;;;;5054517;28;20418;-66
2021/11/29 02:13:11;;;;;;;16.40;11.90;;;;;;;;;;5054253;28;20426;-65
2021/11/29 02:15:38;;;;;;;16.60;12.10;;;;;;;;;;5054576;28;20870;-65
2021/11/29 02:18:05;;;;;;;19.50;13.70;;;;;;;;;;5054527;28;20422;-65
2021/11/29 02:20:35;;;;;;;19.30;12.47;;;;;;;;;;5054359;28;20450;-65
2021/11/29 02:23:07;;;;;;;15.83;11.40;;;;;;;;;;5053503;28;20446;-66
2021/11/29 02:25:33;;;;;;;17.73;11.40;;;;;;;;;;5035655;28;20454;-65
2021/11/29 02:27:59;;;;;;;15.93;10.53;;;;;;;;;;5041697;28;20405;-65
2021/11/29 02:30:27;;;;;;;18.33;12.33;;;;;;;;;;5053769;28;20966;-66
2021/11/29 02:32:54;;;;;;;18.70;12.50;;;;;;;;;;5053796;28;20409;-65
2021/11/29 02:35:21;;;;;;;14.37;11.53;;;;;;;;;;5054109;28;20418;-65
2021/11/29 02:37:47;;;;;;;17.40;12.83;;;;;;;;;;5053807;28;20406;-65
2021/11/29 02:40:14;;;;;;;17.27;11.83;;;;;;;;;;5054051;28;20405;-65
2021/11/29 02:42:40;;;;;;;21.27;12.43;;;;;;;;;;5053010;28;20401;-66
2021/11/29 02:45:06;;;;;;;18.80;12.40;;;;;;;;;;5053592;28;20505;-65
2021/11/29 02:47:32;;;;;;;21.27;13.97;;;;;;;;;;5053978;28;20907;-65
2021/11/29 02:49:58;;;;;;;19.63;12.80;;;;;;;;;;5053870;28;20398;-65
2021/11/29 02:52:24;;;;;;;18.60;13.03;;;;;;;;;;5053346;28;20419;-65
2021/11/29 02:54:50;;;;;;;20.20;14.53;;;;;;;;;;5053390;28;20442;-65
2021/11/29 02:57:17;;;;;;;20.27;14.00;;;;;;;;;;5053765;28;20413;-65
2021/11/29 02:59:45;;;;;;;20.63;13.60;;;;;;;;;;5053427;28;20418;-65
2021/11/29 03:02:13;;;;;;;18.33;13.87;;;;;;;;;;5053245;28;20922;-65
2021/11/29 03:04:40;;;;;;;17.90;13.53;;;;;;;;;;5053114;28;20469;-65
2021/11/29 03:07:06;;;;;;;19.10;13.23;;;;;;;;;;5053243;28;20412;-66
2021/11/29 03:09:33;;;;;;;17.07;12.73;;;;;;;;;;5053406;28;20413;-65
2021/11/29 03:12:00;;;;;;;19.23;13.00;;;;;;;;;;5053396;28;20410;-65
2021/11/29 03:14:26;;;;;;;19.97;15.13;;;;;;;;;;5053178;28;20441;-65
2021/11/29 03:16:53;;;;;;;22.17;15.90;;;;;;;;;;5053323;28;20417;-65
2021/11/29 03:19:20;;;;;;;24.83;14.63;;;;;;;;;;5053058;28;20418;-65
2021/11/29 03:21:46;;;;;;;19.83;13.40;;;;;;;;;;5053105;28;20490;-65
2021/11/29 03:24:12;;;;;;;18.77;13.90;;;;;;;;;;5052530;28;20469;-65
2021/11/29 03:26:39;;;;;;;20.60;13.50;;;;;;;;;;5052991;28;20978;-65
2021/11/29 03:29:06;;;;;;;20.80;14.63;;;;;;;;;;5052915;28;20410;-65
2021/11/29 03:31:33;;;;;;;21.17;15.60;;;;;;;;;;5053158;28;20413;-65
2021/11/29 03:34:01;;;;;;;22.43;14.43;;;;;;;;;;5052937;28;20923;-65
2021/11/29 03:36:28;;;;;;;19.70;14.90;;;;;;;;;;5053107;28;20426;-65
2021/11/29 03:38:55;;;;;;;20.83;14.63;;;;;;;;;;5052817;28;20914;-65
2021/11/29 03:41:21;;;;;;;21.07;14.57;;;;;;;;;;5052978;28;20769;-65
2021/11/29 03:43:47;;;;;;;25.00;15.30;;;;;;;;;;5053219;28;20780;-65
2021/11/29 03:46:14;;;;;;;22.00;15.90;;;;;;;;;;5052545;28;20422;-65
2021/11/29 03:48:40;;;;;;;20.67;13.63;;;;;;;;;;5051180;28;20429;-65
2021/11/29 03:51:06;;;;;;;22.73;16.10;;;;;;;;;;5052872;28;20759;-66
2021/11/29 03:53:32;;;;;;;22.07;16.33;;;;;;;;;;5052844;28;20810;-65
2021/11/29 03:55:58;;;;;;;25.83;15.97;;;;;;;;;;5045780;28;20426;-65
2021/11/29 03:58:24;;;;;;;26.87;16.53;;;;;;;;;;5052384;28;20453;-65
2021/11/29 04:00:50;;;;;;;28.47;18.57;;;;;;;;;;5052270;28;20421;-65
2021/11/29 04:03:17;;;;;;;22.80;16.10;;;;;;;;;;5052360;28;20503;-65
2021/11/29 04:05:43;;;;;;;22.00;15.80;;;;;;;;;;5052005;28;20422;-65
2021/11/29 04:08:09;;;;;;;20.60;15.50;;;;;;;;;;5052271;28;20418;-65
2021/11/29 04:10:35;;;;;;;25.13;15.30;;;;;;;;;;5052422;28;20709;-65
2021/11/29 04:13:02;;;;;;;21.60;14.57;;;;;;;;;;5052463;28;20402;-65
2021/11/29 04:15:28;;;;;;;23.90;16.10;;;;;;;;;;5052273;28;20440;-65
2021/11/29 04:17:54;;;;;;;23.30;16.30;;;;;;;;;;5052008;28;20789;-65
2021/11/29 04:20:20;;;;;;;24.10;16.30;;;;;;;;;;5052366;28;20406;-65
2021/11/29 04:22:47;;;;;;;25.40;16.63;;;;;;;;;;5052576;28;20525;-65
2021/11/29 04:25:16;;;;;;;24.37;16.40;;;;;;;;;;5050756;28;20920;-65
2021/11/29 04:27:43;;;;;;;24.77;17.50;;;;;;;;;;5051944;28;20413;-65
2021/11/29 04:30:16;;;;;;;24.33;17.47;;;;;;;;;;5052523;28;20966;-65
2021/11/29 04:32:43;;;;;;;22.77;17.23;;;;;;;;;;5052482;28;20406;-65
2021/11/29 04:35:09;;;;;;;26.77;18.30;;;;;;;;;;5052212;28;20990;-65
2021/11/29 04:37:35;;;;;;;24.43;17.60;;;;;;;;;;5050438;28;20421;-65
2021/11/29 04:40:01;;;;;;;25.80;17.33;;;;;;;;;;5035043;28;20525;-65
2021/11/29 04:42:28;;;;;;;21.77;15.60;;;;;;;;;;5041818;28;20422;-65
2021/11/29 04:44:54;;;;;;;28.83;18.17;;;;;;;;;;5052213;28;20457;-65
2021/11/29 04:47:20;;;;;;;22.90;16.43;;;;;;;;;;5051874;28;20414;-65
2021/11/29 04:49:46;;;;;;;23.87;16.57;;;;;;;;;;5052274;28;20423;-65
2021/11/29 04:52:12;;;;;;;24.63;19.23;;;;;;;;;;5051815;28;20532;-65
2021/11/29 04:54:38;;;;;;;28.60;17.77;;;;;;;;;;5052042;28;20794;-65
2021/11/29 04:57:04;;;;;;;32.73;18.20;;;;;;;;;;5052021;28;20409;-65
2021/11/29 04:59:30;;;;;;;25.43;17.27;;;;;;;;;;5051563;28;20414;-64
2021/11/29 05:01:56;;;;;;;25.73;16.47;;;;;;;;;;5052275;28;20421;-64
2021/11/29 05:04:22;;;;;;;26.90;18.73;;;;;;;;;;5051848;28;20614;-64
2021/11/29 05:06:48;;;;;;;25.67;17.60;;;;;;;;;;5053372;28;20493;-64
2021/11/29 05:09:15;;;;;;;25.23;17.43;;;;;;;;;;5054499;28;20425;-64
2021/11/29 05:11:41;;;;;;;28.80;17.03;;;;;;;;;;5055827;28;20406;-64
2021/11/29 05:14:07;;;;;;;24.90;17.10;;;;;;;;;;5055217;28;20956;-66
2021/11/29 05:16:35;;;;;;;27.93;19.07;;;;;;;;;;5056155;28;20413;-64
2021/11/29 05:19:01;;;;;;;28.40;18.77;;;;;;;;;;5055747;28;20409;-64
2021/11/29 05:21:27;;;;;;;21.67;17.10;;;;;;;;;;5055834;28;20457;-64
2021/11/29 05:23:54;;;;;;;23.70;18.97;;;;;;;;;;5081463;22;20485;-63
2021/11/29 05:26:23;;;;;;;24.23;17.83;;;;;;;;;;5075436;28;20417;-63
2021/11/29 05:28:50;;;;;;;26.27;17.63;;;;;;;;;;5075237;28;20773;-63
2021/11/29 05:31:16;;;;;;;21.03;16.67;;;;;;;;;;5076028;28;20413;-63
2021/11/29 05:33:42;;;;;;;24.63;18.40;;;;;;;;;;5076686;28;20454;-62
2021/11/29 05:36:08;;;;;;;25.73;16.83;;;;;;;;;;5055667;28;20429;-62
2021/11/29 05:38:34;;;;;;;24.77;17.13;;;;;;;;;;5055887;28;20410;-62
2021/11/29 05:41:01;;;;;;;25.90;16.00;;;;;;;;;;5054746;28;20414;-63
2021/11/29 05:43:27;;;;;;;24.40;16.40;;;;;;;;;;5059892;28;20464;-63
2021/11/29 05:45:53;;;;;;;23.20;14.90;;;;;;;;;;5075477;28;20558;-61
2021/11/29 05:48:19;;;;;;;21.43;15.20;;;;;;;;;;5068491;28;20468;-63
2021/11/29 05:50:45;;;;;;;20.50;16.20;;;;;;;;;;5054943;28;20418;-65
2021/11/29 05:53:11;;;;;;;23.40;16.50;;;;;;;;;;5055315;28;20805;-63
2021/11/29 05:55:38;;;;;;;21.03;15.07;;;;;;;;;;5055248;28;20433;-62
2021/11/29 05:58:04;;;;;;;19.70;13.30;;;;;;;;;;5055949;28;20397;-62
2021/11/29 06:00:30;;;;;;;22.40;16.10;;;;;;;;;;5054760;28;20430;-61
2021/11/29 06:02:57;;;;;;;24.83;15.93;;;;;;;;;;5054865;28;20449;-63
2021/11/29 06:05:24;;;;;;;21.13;14.07;;;;;;;;;;5054749;28;20430;-62
2021/11/29 06:07:50;;;;;;;20.30;14.17;;;;;;;;;;5055300;28;20458;-63
2021/11/29 06:10:16;;;;;;;23.63;16.10;;;;;;;;;;5055167;28;20911;-61
2021/11/29 06:12:45;;;;;;;19.77;14.90;;;;;;;;;;5054751;28;20413;-65
2021/11/29 06:15:13;;;;;;;25.00;15.50;;;;;;;;;;5055364;28;20421;-64
2021/11/29 06:17:39;;;;;;;19.10;14.70;;;;;;;;;;5054578;28;20411;-63
2021/11/29 06:20:06;;;;;;;19.73;14.40;;;;;;;;;;5054669;28;20947;-61
2021/11/29 06:22:32;;;;;;;24.10;14.57;;;;;;;;;;5034694;28;20771;-62
2021/11/29 06:24:58;;;;;;;20.23;14.50;;;;;;;;;;5034271;28;20859;-64
2021/11/29 06:27:24;;;;;;;23.27;13.90;;;;;;;;;;5034652;28;20407;-61
2021/11/29 06:29:50;;;;;;;21.50;15.87;;;;;;;;;;5054098;28;20441;-62
2021/11/29 06:32:16;;;;;;;22.80;15.70;;;;;;;;;;5053947;28;20424;-62
2021/11/29 06:34:43;;;;;;;22.93;15.40;;;;;;;;;;5054024;28;20437;-63
2021/11/29 06:37:10;;;;;;;20.70;14.83;;;;;;;;;;5054422;28;20418;-62
2021/11/29 06:39:36;;;;;;;21.40;16.03;;;;;;;;;;5054453;28;20856;-62
2021/11/29 06:42:03;;;;;;;18.90;15.23;;;;;;;;;;5054074;28;20448;-62
2021/11/29 06:44:29;;;;;;;19.17;14.37;;;;;;;;;;5054330;28;20488;-63
2021/11/29 06:46:55;;;;;;;22.60;15.07;;;;;;;;;;5054229;28;20497;-62
2021/11/29 06:49:21;;;;;;;17.63;12.67;;;;;;;;;;5054262;28;20409;-62
2021/11/29 06:51:47;;;;;;;26.40;16.97;;;;;;;;;;5053869;28;20410;-63
2021/11/29 06:54:15;;;;;;;21.83;15.50;;;;;;;;;;5053892;28;20440;-63
2021/11/29 06:56:41;;;;;;;23.47;14.70;;;;;;;;;;5053787;28;20399;-64
2021/11/29 06:59:08;;;;;;;21.93;15.30;;;;;;;;;;5054233;28;20424;-64
2021/11/29 07:01:34;;;;;;;23.57;14.57;;;;;;;;;;5054018;28;20426;-63
2021/11/29 07:04:01;;;;;;;22.20;15.17;;;;;;;;;;5053451;28;20454;-63
2021/11/29 07:06:27;;;;;;;22.30;15.07;;;;;;;;;;5053891;28;20406;-62
2021/11/29 07:08:53;;;;;;;22.80;15.80;;;;;;;;;;5053364;28;20441;-63
2021/11/29 07:11:20;;;;;;;23.23;15.73;;;;;;;;;;5053729;28;20414;-63
2021/11/29 07:13:46;;;;;;;19.60;14.37;;;;;;;;;;5053541;28;20797;-65
2021/11/29 07:16:12;;;;;;;26.50;15.90;;;;;;;;;;5053553;28;20421;-62
2021/11/29 07:18:38;;;;;;;22.13;15.13;;;;;;;;;;5053434;28;20766;-63
2021/11/29 07:21:04;;;;;;;21.73;15.30;;;;;;;;;;5053836;28;20474;-63
2021/11/29 07:23:31;;;;;;;22.50;15.13;;;;;;;;;;5053129;28;20540;-63
2021/11/29 07:25:57;;;;;;;23.63;16.47;;;;;;;;;;5053126;28;20437;-63
2021/11/29 07:28:24;;;;;;;24.80;15.33;;;;;;;;;;5052931;28;20448;-63
2021/11/29 07:30:50;;;;;;;23.20;14.57;;;;;;;;;;5056550;28;20401;-63
2021/11/29 07:33:16;;;;;;;22.10;15.73;;;;;;;;;;5053044;28;20410;-63
2021/11/29 07:35:42;;;;;;;23.80;15.60;;;;;;;;;;5053259;28;20426;-63
2021/11/29 07:38:08;;;;;;;23.80;15.33;;;;;;;;;;5053157;28;20437;-64
2021/11/29 07:40:35;;;;;;;22.63;17.27;;;;;;;;;;5054883;28;20405;-63
2021/11/29 07:43:02;;;;;;;24.00;16.90;;;;;;;;;;5076275;28;20488;-64
2021/11/29 07:45:29;;;;;;;23.93;16.70;;;;;;;;;;5062220;28;20429;-63
2021/11/29 07:47:55;;;;;;;22.17;14.50;;;;;;;;;;5060695;28;20413;-63
2021/11/29 07:50:21;;;;;;;19.70;16.00;;;;;;;;;;5062368;28;20528;-63
2021/11/29 07:52:48;;;;;;;26.80;18.60;;;;;;;;;;5079142;28;20412;-64
2021/11/29 07:55:17;;;;;;;22.20;15.83;;;;;;;;;;5061456;28;20438;-63
2021/11/29 07:57:44;;;;;;;25.10;18.03;;;;;;;;;;5058832;28;20473;-64
2021/11/29 08:00:12;;;;;;;24.93;17.00;;;;;;;;;;5059032;28;20581;-62
2021/11/29 08:02:38;;;;;;;24.43;17.40;;;;;;;;;;5043205;28;20405;-63
2021/11/29 08:05:04;;;;;;;26.47;18.10;;;;;;;;;;5057252;28;20461;-62
2021/11/29 08:07:30;;;;;;;26.67;18.03;;;;;;;;;;5050799;28;20464;-63
2021/11/29 08:09:57;;;;;;;28.53;18.93;;;;;;;;;;5047232;28;20436;-63
2021/11/29 08:12:23;;;;;;;27.53;18.80;;;;;;;;;;5051693;28;20537;-65
2021/11/29 08:14:53;;;;;;;26.10;18.00;;;;;;;;;;5037468;28;20451;-63
2021/11/29 08:17:19;;;;;;;26.67;17.83;;;;;;;;;;5048237;28;20421;-62
2021/11/29 08:19:45;;;;;;;23.90;19.20;;;;;;;;;;5050373;28;20495;-62
2021/11/29 08:22:11;;;;;;;31.00;17.40;;;;;;;;;;5050509;28;20429;-63
2021/11/29 08:24:37;;;;;;;27.17;18.40;;;;;;;;;;5051800;28;20915;-64
2021/11/29 08:27:03;;;;;;;25.60;17.27;;;;;;;;;;5050261;28;20437;-64
2021/11/29 08:29:29;;;;;;;27.00;17.73;;;;;;;;;;5051499;28;20452;-64
2021/11/29 08:31:55;;;;;;;22.73;15.93;;;;;;;;;;5054276;28;20421;-64
2021/11/29 08:34:21;;;;;;;23.87;16.17;;;;;;;;;;5051761;28;21261;-65
2021/11/29 08:36:48;;;;;;;24.47;15.70;;;;;;;;;;5053746;28;20441;-65
2021/11/29 08:39:14;;;;;;;20.93;15.17;;;;;;;;;;5054049;28;20430;-65
2021/11/29 08:41:40;;;;;;;22.37;15.80;;;;;;;;;;5057212;28;20418;-65
2021/11/29 08:44:06;;;;;;;18.03;13.27;;;;;;;;;;5055515;28;20470;-71
2021/11/29 08:46:33;;;;;;;22.37;14.80;;;;;;;;;;5053516;28;20433;-72
2021/11/29 08:48:59;;;;;;;18.47;14.37;;;;;;;;;;5052548;28;20544;-66
2021/11/29 08:51:25;;;;;;;21.20;14.37;;;;;;;;;;5048501;28;20484;-70
2021/11/29 08:53:51;;;;;;;18.73;14.20;;;;;;;;;;5051680;28;20433;-69
2021/11/29 08:56:18;;;;;;;23.90;13.53;;;;;;;;;;5056649;28;20425;-68
2021/11/29 08:58:45;;;;;;;17.67;12.87;;;;;;;;;;5053866;28;20426;-70
2021/11/29 09:01:12;;;;;;;19.03;13.60;;;;;;;;;;5052470;28;20413;-70
2021/11/29 09:03:38;;;;;;;19.03;13.07;;;;;;;;;;5054131;28;20450;-71
2021/11/29 09:06:04;;;;;;;19.93;13.00;;;;;;;;;;5054511;28;20450;-68
2021/11/29 09:08:33;;;;;;;18.73;12.13;;;;;;;;;;5055486;28;20444;-68
2021/11/29 09:10:59;;;;;;;20.60;12.37;;;;;;;;;;5056714;28;20421;-68
2021/11/29 09:13:30;;;;;;;16.93;12.33;;;;;;;;;;5061454;28;20445;-70
2021/11/29 09:15:57;;;;;;;16.50;11.40;;;;;;;;;;5062172;28;20986;-70
2021/11/29 09:18:23;;;;;;;18.50;12.17;;;;;;;;;;5054899;28;20479;-67
2021/11/29 09:20:49;;;;;;;13.90;11.20;;;;;;;;;;5053601;28;20953;-67
2021/11/29 09:23:15;;;;;;;17.07;12.07;;;;;;;;;;5051898;28;20552;-72
2021/11/29 09:25:41;;;;;;;17.73;11.87;;;;;;;;;;5052502;28;20544;-67
2021/11/29 09:28:11;;;;;;;18.90;12.35;;;;;;;;;;5054859;28;20420;-67
2021/11/29 09:30:38;;;;;;;15.57;11.50;;;;;;;;;;5052031;28;20175;-68
2021/11/29 09:33:04;;;;;;;18.73;11.87;;;;;;;;;;5053807;28;20429;-63
2021/11/29 09:35:30;;;;;;;17.70;12.10;;;;;;;;;;5054023;28;20445;-70
2021/11/29 09:37:57;;;;;;;19.10;13.05;;;;;;;;;;5051630;28;20585;-64
2021/11/29 09:40:26;;;;;;;17.83;12.95;;;;;;;;;;5053667;28;20419;-67
2021/11/29 09:42:53;;;;;;;16.27;13.07;;;;;;;;;;5054322;28;20419;-59
2021/11/29 09:45:19;;;;;;;17.77;13.23;;;;;;;;;;5053225;28;20199;-69
2021/11/29 09:47:46;;;;;;;17.63;12.63;;;;;;;;;;5052015;28;20429;-70
2021/11/29 09:50:12;;;;;;;19.27;13.90;;;;;;;;;;5049103;28;20410;-72
2021/11/29 09:52:39;;;;;;;24.33;15.07;;;;;;;;;;5050770;28;20500;-70
2021/11/29 09:55:06;;;;;;;20.70;13.30;;;;;;;;;;5053129;28;20437;-69
2021/11/29 09:57:32;;;;;;;19.40;14.07;;;;;;;;;;5069932;28;20446;-69
2021/11/29 09:59:58;;;;;;;20.30;14.65;;;;;;;;;;5050293;28;20415;-68
2021/11/29 10:02:24;;;;;;;19.23;13.20;;;;;;;;;;5050782;28;20194;-69
2021/11/29 10:04:50;;;;;;;18.37;12.97;;;;;;;;;;5050455;28;20485;-70
2021/11/29 10:07:34;;;;;;;20.90;15.23;;;;;;;;;;5048461;28;20429;-68
2021/11/29 10:10:20;;;;;;;17.53;12.17;;;;;;;;;;5053477;28;20418;-68
2021/11/29 10:12:48;;;;;;;19.65;13.40;;;;;;;;;;5051550;28;20427;-66
2021/11/29 10:15:14;;;;;;;17.80;12.57;;;;;;;;;;5047609;28;20280;-62
2021/11/29 10:17:40;;;;;;;18.87;12.60;;;;;;;;;;5048187;28;20438;-69
2021/11/29 10:20:07;;;;;;;22.20;13.80;;;;;;;;;;5051101;28;20513;-67
2021/11/29 10:22:33;;;;;;;21.13;13.60;;;;;;;;;;5054858;28;20497;-70
2021/11/29 10:25:13;;;;;;;20.20;12.50;;;;;;;;;;5041898;28;20511;-69
2021/11/29 10:27:41;;;;;;;18.60;12.60;;;;;;;;;;5050296;28;20429;-71
2021/11/29 10:30:07;;;;;;;16.50;11.00;;;;;;;;;;5053596;28;20434;-68
2021/11/29 10:32:35;;;;;;;15.93;11.23;;;;;;;;;;5053058;28;20514;-68
2021/11/29 10:35:01;;;;;;;16.57;11.73;;;;;;;;;;5049533;28;20449;-69
2021/11/29 10:37:29;;;;;;;16.50;12.00;;;;;;;;;;5054045;28;20421;-68
2021/11/29 10:39:55;;;;;;;17.97;13.50;;;;;;;;;;5054063;28;20513;-69
2021/11/29 10:42:24;;;;;;;18.00;11.97;;;;;;;;;;5070707;28;20497;-67
2021/11/29 10:44:53;;;;;;;16.83;12.13;;;;;;;;;;5053073;28;20470;-69
2021/11/29 10:47:20;;;;;;;17.53;12.63;;;;;;;;;;5052064;28;20421;-70
2021/11/29 10:49:48;;;;;;;17.27;11.90;;;;;;;;;;5056635;28;20513;-70
2021/11/29 10:52:18;;;;;;;17.50;12.67;;;;;;;;;;5053529;28;20831;-69
2021/11/29 10:54:45;;;;;;;17.60;13.10;;;;;;;;;;5048815;28;20469;-69
2021/11/29 10:57:11;;;;;;;17.60;11.80;;;;;;;;;;5052368;28;20517;-67
2021/11/29 10:59:39;;;;;;;19.03;12.10;;;;;;;;;;5052588;28;20442;-65
2021/11/29 11:02:25;;;;;;;15.43;11.03;;;;;;;;;;5052659;28;20426;-66
2021/11/29 11:05:09;;;;;;;18.60;12.50;;;;;;;;;;5049029;28;20461;-72
2021/11/29 11:07:37;;;;;;;18.23;13.20;;;;;;;;;;5049273;28;20424;-68
2021/11/29 11:10:06;;;;;;;17.23;11.00;;;;;;;;;;5053956;28;20425;-66
2021/11/29 11:12:33;;;;;;;18.20;12.67;;;;;;;;;;5051697;28;20892;-68
2021/11/29 11:15:19;;;;;;;19.93;13.20;;;;;;;;;;5050871;28;20485;-70
2021/11/29 11:17:52;;;;;;;20.53;12.60;;;;;;;;;;5051620;28;20775;-66
2021/11/29 11:20:19;;;;;;;17.90;12.80;;;;;;;;;;5049469;28;20421;-65
2021/11/29 11:22:46;;;;;;;21.97;15.00;;;;;;;;;;5051960;28;21101;-66
2021/11/29 11:25:14;;;;;;;17.23;12.80;;;;;;;;;;5052687;28;20497;-65
2021/11/29 11:27:42;;;;;;;18.73;12.70;;;;;;;;;;5050015;28;20538;-68
2021/11/29 11:30:09;;;;;;;18.33;13.50;;;;;;;;;;5051778;28;20425;-67
2021/11/29 11:32:37;;;;;;;20.60;14.83;;;;;;;;;;5049403;28;20513;-65
2021/11/29 11:35:14;;;;;;;18.10;12.23;;;;;;;;;;5049187;28;20452;-67
2021/11/29 11:37:44;;;;;;;19.10;13.53;;;;;;;;;;5049340;28;20424;-63
2021/11/29 11:40:12;;;;;;;17.40;11.83;;;;;;;;;;5039138;28;22272;-63
2021/11/29 11:42:38;;;;;;;20.90;13.90;;;;;;;;;;5050124;28;20467;-61
2021/11/29 11:45:05;;;;;;;23.50;16.23;;;;;;;;;;5049781;28;20607;-62
2021/11/29 11:47:32;;;;;;;21.87;14.37;;;;;;;;;;5051154;28;20433;-63
2021/11/29 11:49:59;;;;;;;24.60;16.87;;;;;;;;;;5050164;28;20511;-62
2021/11/29 11:52:26;;;;;;;22.27;14.77;;;;;;;;;;5050315;28;20435;-65
2021/11/29 11:54:57;;;;;;;20.17;14.60;;;;;;;;;;5050994;28;20457;-64
2021/11/29 11:57:24;;;;;;;10.20;6.93;;;;;;;;;;5046224;28;20421;-63
2021/11/29 11:59:55;;;;;;;8.83;5.70;;;;;;;;;;5042998;28;20509;-65
2021/11/29 12:02:25;;;;;;;9.93;6.60;;;;;;;;;;5050415;28;20932;-63
2021/11/29 12:05:10;;;;;;;9.20;6.00;;;;;;;;;;5049145;28;20842;-64
2021/11/29 12:07:36;;;;;;;12.03;6.63;;;;;;;;;;5051444;28;20410;-65
2021/11/29 12:10:20;;;;;;;10.00;6.43;;;;;;;;;;5049361;28;20425;-63
2021/11/29 12:12:56;;;;;;;10.43;6.93;;;;;;;;;;5047487;28;20441;-65
2021/11/29 12:15:35;;;;;;;14.07;7.10;;;;;;;;;;5049499;28;20485;-65
2021/11/29 12:18:01;;;;;;;10.50;6.70;;;;;;;;;;5058287;28;20402;-64
2021/11/29 12:20:27;;;;;;;16.17;8.17;;;;;;;;;;5056500;28;20413;-65
2021/11/29 12:22:53;;;;;;;13.87;8.63;;;;;;;;;;5057757;28;20475;-66
2021/11/29 12:25:22;;;;;;;10.63;7.47;;;;;;;;;;5057465;28;20546;-66
2021/11/29 12:28:00;;;;;;;15.40;8.50;;;;;;;;;;5057915;28;20456;-65
2021/11/29 12:30:33;;;;;;;15.97;8.80;;;;;;;;;;5053230;28;20912;-64
2021/11/29 12:33:02;;;;;;;14.57;9.63;;;;;;;;;;5058013;28;20417;-66
2021/11/29 12:35:38;;;;;;;14.00;8.83;;;;;;;;;;5057324;28;20434;-66
2021/11/29 12:38:09;;;;;;;13.50;9.40;;;;;;;;;;5056084;28;20417;-65
2021/11/29 12:40:54;;;;;;;14.00;9.80;;;;;;;;;;5056342;28;20479;-64
2021/11/29 12:43:38;;;;;;;15.80;9.07;;;;;;;;;;5055867;28;20464;-67
2021/11/29 12:46:23;;;;;;;17.00;9.43;;;;;;;;;;5056775;28;20436;-63
2021/11/29 12:48:50;;;;;;;18.87;9.60;;;;;;;;;;5057029;28;20417;-63
2021/11/29 12:51:36;;;;;;;14.57;10.03;;;;;;;;;;5056906;28;20763;-63
2021/11/29 12:54:02;;;;;;;14.70;9.53;;;;;;;;;;5054556;28;20433;-64
2021/11/29 12:56:28;;;;;;;18.17;10.23;;;;;;;;;;5057352;28;20413;-63
2021/11/29 12:59:00;;;;;;;11.70;8.80;;;;;;;;;;5054851;28;20433;-69
2021/11/29 13:01:32;;;;;;;17.02;10.25;;;;;;;;;;5055956;28;20423;-73
2021/11/29 13:03:58;;;;;;;14.20;9.53;;;;;;;;;;5054729;28;20191;-67
2021/11/29 13:06:28;;;;;;;19.43;10.07;;;;;;;;;;5056548;28;20417;-68
2021/11/29 13:09:00;;;;;;;17.07;10.47;;;;;;;;;;5056330;28;20417;-67
2021/11/29 13:11:36;;;;;;;16.27;9.60;;;;;;;;;;5056967;28;20944;-65
2021/11/29 13:14:03;;;;;;;14.67;9.73;;;;;;;;;;5053568;28;20175;-67
2021/11/29 13:16:32;;;;;;;13.23;8.53;;;;;;;;;;5056207;28;20488;-67
2021/11/29 13:19:10;;;;;;;14.00;9.33;;;;;;;;;;5057043;28;20509;-70
2021/11/29 13:21:49;;;;;;;19.40;9.57;;;;;;;;;;5054426;28;20908;-75
2021/11/29 13:24:19;;;;;;;13.23;8.30;;;;;;;;;;5055920;28;20465;-74
2021/11/29 13:26:50;;;;;;;18.50;11.00;;;;;;;;;;5056201;28;20418;-71
2021/11/29 13:29:24;;;;;;;19.73;10.17;;;;;;;;;;5053507;28;20638;-68
2021/11/29 13:31:50;;;;;;;16.17;9.83;;;;;;;;;;5047094;28;20505;-67
2021/11/29 13:34:23;;;;;;;12.97;8.40;;;;;;;;;;5053165;28;20446;-65
2021/11/29 13:36:49;;;;;;;19.60;10.70;;;;;;;;;;5059200;28;20771;-66
2021/11/29 13:39:15;;;;;;;15.23;9.27;;;;;;;;;;5049475;28;20997;-68
2021/11/29 13:41:42;;;;;;;12.93;9.27;;;;;;;;;;5053780;28;20422;-68
2021/11/29 13:44:18;;;;;;;17.30;10.20;;;;;;;;;;5039298;28;20469;-65
2021/11/29 13:46:57;;;;;;;14.57;8.87;;;;;;;;;;5050302;28;20505;-66
2021/11/29 13:49:29;;;;;;;13.67;8.77;;;;;;;;;;5052348;28;20421;-67
2021/11/29 13:51:55;;;;;;;13.03;8.20;;;;;;;;;;5056276;28;20920;-69
2021/11/29 13:54:21;;;;;;;18.83;9.60;;;;;;;;;;5058654;28;20438;-69
2021/11/29 13:56:47;;;;;;;13.80;8.70;;;;;;;;;;5053244;28;20859;-68
2021/11/29 13:59:17;;;;;;;14.30;9.20;;;;;;;;;;5051789;28;20935;-70
2021/11/29 14:01:43;;;;;;;17.20;9.20;;;;;;;;;;5048499;28;20471;-68
2021/11/29 14:04:09;;;;;;;17.20;10.60;;;;;;;;;;5053971;28;20833;-71
2021/11/29 14:06:35;;;;;;;16.90;9.10;;;;;;;;;;5048220;28;20545;-65
2021/11/29 14:09:01;;;;;;;13.97;8.90;;;;;;;;;;5051983;28;20414;-65
2021/11/29 14:11:32;;;;;;;10.63;7.10;;;;;;;;;;5055006;28;20552;-65
2021/11/29 14:14:01;;;;;;;12.40;8.20;;;;;;;;;;5053100;28;20452;-69
2021/11/29 14:16:30;;;;;;;11.57;8.43;;;;;;;;;;5050420;28;20978;-68
2021/11/29 14:18:58;;;;;;;11.80;6.97;;;;;;;;;;5050468;28;20438;-69
2021/11/29 14:21:28;;;;;;;11.63;8.03;;;;;;;;;;5053377;28;20429;-68